sensor_id;sensor_type;location;lat;lon;timestamp;temperature;humidity
13229;DHT22;6680;53.220;10.402;2022-08-07T00:01:25;11.20;99.90
13229;DHT22;6680;53.220;10.402;2022-08-07T00:03:52;11.10;99.90
13229;DHT22;6680;53.220;10.402;2022-08-07T00:06:18;11.10;99.90
13229;DHT22;6680;53.220;10.402;2022-08-07T00:08:45;11.10;99.90
13229;DHT22;6680;53.220;10.402;2022-08-07T00:11:12;11.00;99.90
13229;DHT22;6680;53.220;10.402;2022-08-07T00:13:38;11.00;99.90
13229;DHT22;6680;53.220;10.402;2022-08-07T00:16:08;10.90;99.90
13229;DHT22;6680;53.220;10.402;2022-08-07T00:18:34;10.80;99.90
13229;DHT22;6680;53.220;10.402;2022-08-07T00:21:03;10.80;99.90
13229;DHT22;6680;53.220;10.402;2022-08-07T00:23:31;10.70;99.90
13229;DHT22;6680;53.220;10.402;2022-08-07T00:25:58;10.60;99.90
13229;DHT22;6680;53.220;10.402;2022-08-07T00:28:26;10.50;99.90
13229;DHT22;6680;53.220;10.402;2022-08-07T00:30:52;10.50;99.90
13229;DHT22;6680;53.220;10.402;2022-08-07T00:33:20;10.40;99.90
13229;DHT22;6680;53.220;10.402;2022-08-07T00:35:51;10.40;99.90
13229;DHT22;6680;53.220;10.402;2022-08-07T00:38:17;10.50;99.90
13229;DHT22;6680;53.220;10.402;2022-08-07T00:40:44;10.40;99.90
13229;DHT22;6680;53.220;10.402;2022-08-07T00:43:12;10.40;99.90
13229;DHT22;6680;53.220;10.402;2022-08-07T00:45:40;10.40;99.90
13229;DHT22;6680;53.220;10.402;2022-08-07T00:48:08;10.40;99.90
13229;DHT22;6680;53.220;10.402;2022-08-07T00:50:37;10.50;99.90
13229;DHT22;6680;53.220;10.402;2022-08-07T00:53:05;10.50;99.90
13229;DHT22;6680;53.220;10.402;2022-08-07T00:55:32;10.50;99.90
13229;DHT22;6680;53.220;10.402;2022-08-07T00:57:58;10.50;99.90
13229;DHT22;6680;53.220;10.402;2022-08-07T01:00:25;10.40;99.90
13229;DHT22;6680;53.220;10.402;2022-08-07T01:02:52;10.30;99.90
13229;DHT22;6680;53.220;10.402;2022-08-07T01:05:20;10.30;99.90
13229;DHT22;6680;53.220;10.402;2022-08-07T01:07:48;10.20;99.90
13229;DHT22;6680;53.220;10.402;2022-08-07T01:10:15;10.10;99.90
13229;DHT22;6680;53.220;10.402;2022-08-07T01:12:42;10.10;99.90
13229;DHT22;6680;53.220;10.402;2022-08-07T01:15:09;10.00;99.90
13229;DHT22;6680;53.220;10.402;2022-08-07T01:17:36;9.90;99.90
13229;DHT22;6680;53.220;10.402;2022-08-07T01:20:06;9.90;99.90
13229;DHT22;6680;53.220;10.402;2022-08-07T01:22:36;9.80;99.90
13229;DHT22;6680;53.220;10.402;2022-08-07T01:25:04;9.80;99.90
13229;DHT22;6680;53.220;10.402;2022-08-07T01:27:32;9.70;99.90
13229;DHT22;6680;53.220;10.402;2022-08-07T01:29:59;9.70;99.90
13229;DHT22;6680;53.220;10.402;2022-08-07T01:32:27;9.60;99.90
13229;DHT22;6680;53.220;10.402;2022-08-07T01:34:53;9.60;99.90
13229;DHT22;6680;53.220;10.402;2022-08-07T01:37:21;9.70;99.90
13229;DHT22;6680;53.220;10.402;2022-08-07T01:39:49;9.60;99.90
13229;DHT22;6680;53.220;10.402;2022-08-07T01:42:16;9.60;99.90
13229;DHT22;6680;53.220;10.402;2022-08-07T01:44:43;9.60;99.90
13229;DHT22;6680;53.220;10.402;2022-08-07T01:47:10;9.50;99.90
13229;DHT22;6680;53.220;10.402;2022-08-07T01:49:36;9.50;99.90
13229;DHT22;6680;53.220;10.402;2022-08-07T01:52:05;9.50;99.90
13229;DHT22;6680;53.220;10.402;2022-08-07T01:54:36;9.50;99.90
13229;DHT22;6680;53.220;10.402;2022-08-07T01:57:11;9.40;99.90
13229;DHT22;6680;53.220;10.402;2022-08-07T01:59:41;9.40;99.90
13229;DHT22;6680;53.220;10.402;2022-08-07T02:02:14;9.50;99.90
13229;DHT22;6680;53.220;10.402;2022-08-07T02:04:46;9.40;99.90
13229;DHT22;6680;53.220;10.402;2022-08-07T02:07:16;9.50;99.90
13229;DHT22;6680;53.220;10.402;2022-08-07T02:09:44;9.60;99.90
13229;DHT22;6680;53.220;10.402;2022-08-07T02:12:13;9.60;99.90
13229;DHT22;6680;53.220;10.402;2022-08-07T02:14:46;9.50;99.90
13229;DHT22;6680;53.220;10.402;2022-08-07T02:17:14;9.60;99.90
13229;DHT22;6680;53.220;10.402;2022-08-07T02:19:43;9.60;99.90
13229;DHT22;6680;53.220;10.402;2022-08-07T02:22:12;9.70;99.90
13229;DHT22;6680;53.220;10.402;2022-08-07T02:24:41;9.60;99.90
13229;DHT22;6680;53.220;10.402;2022-08-07T02:27:08;9.50;99.90
13229;DHT22;6680;53.220;10.402;2022-08-07T02:29:38;9.50;99.90
13229;DHT22;6680;53.220;10.402;2022-08-07T02:32:07;9.40;99.90
13229;DHT22;6680;53.220;10.402;2022-08-07T02:34:36;9.40;99.90
13229;DHT22;6680;53.220;10.402;2022-08-07T02:37:04;9.30;99.90
13229;DHT22;6680;53.220;10.402;2022-08-07T02:39:33;9.40;99.90
13229;DHT22;6680;53.220;10.402;2022-08-07T02:42:01;9.30;99.90
13229;DHT22;6680;53.220;10.402;2022-08-07T02:44:29;9.20;99.90
13229;DHT22;6680;53.220;10.402;2022-08-07T02:46:59;9.30;99.90
13229;DHT22;6680;53.220;10.402;2022-08-07T02:49:27;9.30;99.90
13229;DHT22;6680;53.220;10.402;2022-08-07T02:51:55;9.40;99.90
13229;DHT22;6680;53.220;10.402;2022-08-07T02:54:25;9.30;99.90
13229;DHT22;6680;53.220;10.402;2022-08-07T02:56:53;9.30;99.90
13229;DHT22;6680;53.220;10.402;2022-08-07T02:59:23;9.20;99.90
13229;DHT22;6680;53.220;10.402;2022-08-07T03:01:51;9.20;99.90
13229;DHT22;6680;53.220;10.402;2022-08-07T03:04:21;9.10;99.90
13229;DHT22;6680;53.220;10.402;2022-08-07T03:06:49;9.10;99.90
13229;DHT22;6680;53.220;10.402;2022-08-07T03:09:17;9.00;99.90
13229;DHT22;6680;53.220;10.402;2022-08-07T03:11:46;9.00;99.90
13229;DHT22;6680;53.220;10.402;2022-08-07T03:14:14;9.00;99.90
13229;DHT22;6680;53.220;10.402;2022-08-07T03:16:41;9.10;99.90
13229;DHT22;6680;53.220;10.402;2022-08-07T03:19:08;9.10;99.90
13229;DHT22;6680;53.220;10.402;2022-08-07T03:21:37;9.00;99.90
13229;DHT22;6680;53.220;10.402;2022-08-07T03:24:04;8.90;99.90
13229;DHT22;6680;53.220;10.402;2022-08-07T03:26:32;8.90;99.90
13229;DHT22;6680;53.220;10.402;2022-08-07T03:29:02;8.80;99.90
13229;DHT22;6680;53.220;10.402;2022-08-07T03:31:31;8.80;99.90
13229;DHT22;6680;53.220;10.402;2022-08-07T03:34:01;8.70;99.90
13229;DHT22;6680;53.220;10.402;2022-08-07T03:36:28;8.70;99.90
13229;DHT22;6680;53.220;10.402;2022-08-07T03:39:01;8.70;99.90
13229;DHT22;6680;53.220;10.402;2022-08-07T03:41:29;9.00;99.90
13229;DHT22;6680;53.220;10.402;2022-08-07T03:43:57;8.70;99.90
13229;DHT22;6680;53.220;10.402;2022-08-07T03:46:24;8.70;99.90
13229;DHT22;6680;53.220;10.402;2022-08-07T03:48:52;8.70;99.90
13229;DHT22;6680;53.220;10.402;2022-08-07T03:51:20;8.70;99.90
13229;DHT22;6680;53.220;10.402;2022-08-07T03:53:47;8.70;99.90
13229;DHT22;6680;53.220;10.402;2022-08-07T03:56:19;8.70;99.90
13229;DHT22;6680;53.220;10.402;2022-08-07T03:58:46;8.70;99.90
13229;DHT22;6680;53.220;10.402;2022-08-07T04:01:14;8.60;99.90
13229;DHT22;6680;53.220;10.402;2022-08-07T04:03:42;8.60;99.90
13229;DHT22;6680;53.220;10.402;2022-08-07T04:06:09;8.60;99.90
13229;DHT22;6680;53.220;10.402;2022-08-07T04:08:38;8.70;99.90
13229;DHT22;6680;53.220;10.402;2022-08-07T04:11:06;8.70;99.90
13229;DHT22;6680;53.220;10.402;2022-08-07T04:13:35;8.80;99.90
13229;DHT22;6680;53.220;10.402;2022-08-07T04:16:02;8.80;99.90
13229;DHT22;6680;53.220;10.402;2022-08-07T04:20:56;8.80;99.90
13229;DHT22;6680;53.220;10.402;2022-08-07T04:23:24;8.80;99.90
13229;DHT22;6680;53.220;10.402;2022-08-07T04:25:52;8.80;99.90
13229;DHT22;6680;53.220;10.402;2022-08-07T04:30:48;9.00;99.90
13229;DHT22;6680;53.220;10.402;2022-08-07T04:33:16;9.10;99.90
13229;DHT22;6680;53.220;10.402;2022-08-07T04:35:44;9.20;99.90
13229;DHT22;6680;53.220;10.402;2022-08-07T04:38:12;9.30;99.90
13229;DHT22;6680;53.220;10.402;2022-08-07T04:40:40;9.40;99.90
13229;DHT22;6680;53.220;10.402;2022-08-07T04:43:07;9.50;99.90
13229;DHT22;6680;53.220;10.402;2022-08-07T04:45:40;9.70;99.90
13229;DHT22;6680;53.220;10.402;2022-08-07T04:48:14;9.80;99.90
13229;DHT22;6680;53.220;10.402;2022-08-07T04:50:47;9.90;99.90
13229;DHT22;6680;53.220;10.402;2022-08-07T04:53:21;10.00;99.90
13229;DHT22;6680;53.220;10.402;2022-08-07T04:55:56;10.10;99.90
13229;DHT22;6680;53.220;10.402;2022-08-07T04:58:30;10.20;99.90
13229;DHT22;6680;53.220;10.402;2022-08-07T05:01:04;10.30;99.90
13229;DHT22;6680;53.220;10.402;2022-08-07T05:03:41;10.40;99.90
13229;DHT22;6680;53.220;10.402;2022-08-07T05:06:13;10.60;99.90
13229;DHT22;6680;53.220;10.402;2022-08-07T05:08:46;10.60;99.90
13229;DHT22;6680;53.220;10.402;2022-08-07T05:11:19;10.70;99.90
13229;DHT22;6680;53.220;10.402;2022-08-07T05:13:51;10.70;99.90
13229;DHT22;6680;53.220;10.402;2022-08-07T05:16:20;10.70;99.90
13229;DHT22;6680;53.220;10.402;2022-08-07T05:18:53;10.80;99.90
13229;DHT22;6680;53.220;10.402;2022-08-07T05:21:24;10.80;99.90
13229;DHT22;6680;53.220;10.402;2022-08-07T05:23:56;10.90;99.90
13229;DHT22;6680;53.220;10.402;2022-08-07T05:26:25;11.00;99.90
13229;DHT22;6680;53.220;10.402;2022-08-07T05:28:54;11.10;99.90
13229;DHT22;6680;53.220;10.402;2022-08-07T05:31:24;11.20;99.90
13229;DHT22;6680;53.220;10.402;2022-08-07T05:33:53;11.30;99.90
13229;DHT22;6680;53.220;10.402;2022-08-07T05:36:21;11.50;99.90
13229;DHT22;6680;53.220;10.402;2022-08-07T05:38:49;11.60;99.90
13229;DHT22;6680;53.220;10.402;2022-08-07T05:41:17;11.90;99.90
13229;DHT22;6680;53.220;10.402;2022-08-07T05:43:46;12.50;99.90
13229;DHT22;6680;53.220;10.402;2022-08-07T05:46:14;13.40;99.90
13229;DHT22;6680;53.220;10.402;2022-08-07T05:48:42;14.30;99.90
13229;DHT22;6680;53.220;10.402;2022-08-07T05:51:11;15.20;99.90
13229;DHT22;6680;53.220;10.402;2022-08-07T05:53:39;16.10;99.90
13229;DHT22;6680;53.220;10.402;2022-08-07T05:56:07;16.80;99.90
13229;DHT22;6680;53.220;10.402;2022-08-07T05:58:35;17.40;99.90
13229;DHT22;6680;53.220;10.402;2022-08-07T06:01:02;18.00;99.90
13229;DHT22;6680;53.220;10.402;2022-08-07T06:03:30;18.40;99.90
13229;DHT22;6680;53.220;10.402;2022-08-07T06:05:58;18.80;99.90
13229;DHT22;6680;53.220;10.402;2022-08-07T06:08:27;19.20;99.90
13229;DHT22;6680;53.220;10.402;2022-08-07T06:10:54;19.50;99.90
13229;DHT22;6680;53.220;10.402;2022-08-07T06:13:20;19.70;99.90
13229;DHT22;6680;53.220;10.402;2022-08-07T06:15:48;19.40;99.90
13229;DHT22;6680;53.220;10.402;2022-08-07T06:18:15;19.00;99.90
13229;DHT22;6680;53.220;10.402;2022-08-07T06:20:43;18.40;99.90
13229;DHT22;6680;53.220;10.402;2022-08-07T06:23:10;18.00;99.90
13229;DHT22;6680;53.220;10.402;2022-08-07T06:25:39;17.50;99.90
13229;DHT22;6680;53.220;10.402;2022-08-07T06:28:07;17.10;99.90
13229;DHT22;6680;53.220;10.402;2022-08-07T06:30:36;16.80;99.90
13229;DHT22;6680;53.220;10.402;2022-08-07T06:33:03;16.50;99.90
13229;DHT22;6680;53.220;10.402;2022-08-07T06:35:31;16.40;99.90
13229;DHT22;6680;53.220;10.402;2022-08-07T06:37:57;16.20;99.90
13229;DHT22;6680;53.220;10.402;2022-08-07T06:40:24;16.10;99.90
13229;DHT22;6680;53.220;10.402;2022-08-07T06:42:55;16.00;99.90
13229;DHT22;6680;53.220;10.402;2022-08-07T06:45:22;16.00;99.90
13229;DHT22;6680;53.220;10.402;2022-08-07T06:47:50;15.90;99.90
13229;DHT22;6680;53.220;10.402;2022-08-07T06:50:17;15.90;99.90
13229;DHT22;6680;53.220;10.402;2022-08-07T06:52:47;16.00;99.90
13229;DHT22;6680;53.220;10.402;2022-08-07T06:55:18;16.00;99.90
13229;DHT22;6680;53.220;10.402;2022-08-07T06:57:46;16.10;99.90
13229;DHT22;6680;53.220;10.402;2022-08-07T07:00:16;16.20;99.90
13229;DHT22;6680;53.220;10.402;2022-08-07T07:02:44;16.20;99.90
13229;DHT22;6680;53.220;10.402;2022-08-07T07:05:11;16.30;99.90
13229;DHT22;6680;53.220;10.402;2022-08-07T07:07:39;16.40;99.90
13229;DHT22;6680;53.220;10.402;2022-08-07T07:10:06;16.50;99.90
13229;DHT22;6680;53.220;10.402;2022-08-07T07:12:38;16.60;99.90
13229;DHT22;6680;53.220;10.402;2022-08-07T07:15:10;16.60;99.90
13229;DHT22;6680;53.220;10.402;2022-08-07T07:17:44;16.70;99.90
13229;DHT22;6680;53.220;10.402;2022-08-07T07:20:18;16.80;99.90
13229;DHT22;6680;53.220;10.402;2022-08-07T07:22:46;16.90;99.90
13229;DHT22;6680;53.220;10.402;2022-08-07T07:25:15;16.90;99.90
13229;DHT22;6680;53.220;10.402;2022-08-07T07:27:47;17.00;99.90
13229;DHT22;6680;53.220;10.402;2022-08-07T07:30:17;17.00;99.90
13229;DHT22;6680;53.220;10.402;2022-08-07T07:32:46;17.10;99.90
13229;DHT22;6680;53.220;10.402;2022-08-07T07:35:13;17.20;99.90
13229;DHT22;6680;53.220;10.402;2022-08-07T07:37:41;17.20;99.90
13229;DHT22;6680;53.220;10.402;2022-08-07T07:40:14;17.30;99.90
13229;DHT22;6680;53.220;10.402;2022-08-07T07:42:42;17.30;99.90
13229;DHT22;6680;53.220;10.402;2022-08-07T07:45:10;17.40;99.90
13229;DHT22;6680;53.220;10.402;2022-08-07T07:47:41;17.50;99.90
13229;DHT22;6680;53.220;10.402;2022-08-07T07:50:11;17.60;99.90
13229;DHT22;6680;53.220;10.402;2022-08-07T07:52:40;17.60;99.90
13229;DHT22;6680;53.220;10.402;2022-08-07T07:55:08;17.70;99.90
13229;DHT22;6680;53.220;10.402;2022-08-07T07:57:36;17.90;99.90
13229;DHT22;6680;53.220;10.402;2022-08-07T08:00:05;17.90;99.90
13229;DHT22;6680;53.220;10.402;2022-08-07T08:02:34;18.00;99.90
13229;DHT22;6680;53.220;10.402;2022-08-07T08:05:05;18.00;99.90
13229;DHT22;6680;53.220;10.402;2022-08-07T08:07:35;18.00;99.90
13229;DHT22;6680;53.220;10.402;2022-08-07T08:10:04;18.10;99.90
13229;DHT22;6680;53.220;10.402;2022-08-07T08:12:33;18.10;99.90
13229;DHT22;6680;53.220;10.402;2022-08-07T08:15:01;18.20;99.90
13229;DHT22;6680;53.220;10.402;2022-08-07T08:17:28;18.30;99.90
13229;DHT22;6680;53.220;10.402;2022-08-07T08:20:01;18.30;99.90
13229;DHT22;6680;53.220;10.402;2022-08-07T08:22:28;18.40;99.90
13229;DHT22;6680;53.220;10.402;2022-08-07T08:25:16;18.50;99.90
13229;DHT22;6680;53.220;10.402;2022-08-07T08:28:03;18.60;99.90
13229;DHT22;6680;53.220;10.402;2022-08-07T08:30:32;18.70;99.90
13229;DHT22;6680;53.220;10.402;2022-08-07T08:33:02;18.80;99.90
13229;DHT22;6680;53.220;10.402;2022-08-07T08:35:30;18.90;99.90
13229;DHT22;6680;53.220;10.402;2022-08-07T08:38:01;18.90;99.90
13229;DHT22;6680;53.220;10.402;2022-08-07T08:40:31;19.00;99.90
13229;DHT22;6680;53.220;10.402;2022-08-07T08:43:05;19.00;99.90
13229;DHT22;6680;53.220;10.402;2022-08-07T08:45:40;19.10;99.90
13229;DHT22;6680;53.220;10.402;2022-08-07T08:48:16;19.10;99.90
13229;DHT22;6680;53.220;10.402;2022-08-07T08:50:49;19.10;99.90
13229;DHT22;6680;53.220;10.402;2022-08-07T08:53:21;19.20;99.90
13229;DHT22;6680;53.220;10.402;2022-08-07T08:55:53;19.30;99.90
13229;DHT22;6680;53.220;10.402;2022-08-07T08:58:28;19.30;99.90
13229;DHT22;6680;53.220;10.402;2022-08-07T09:01:00;19.40;99.90
13229;DHT22;6680;53.220;10.402;2022-08-07T09:03:32;19.40;99.90
13229;DHT22;6680;53.220;10.402;2022-08-07T09:06:07;19.50;99.90
13229;DHT22;6680;53.220;10.402;2022-08-07T09:08:43;19.50;99.90
13229;DHT22;6680;53.220;10.402;2022-08-07T09:11:21;19.60;99.90
13229;DHT22;6680;53.220;10.402;2022-08-07T09:14:03;19.50;99.90
13229;DHT22;6680;53.220;10.402;2022-08-07T09:16:40;19.60;99.90
13229;DHT22;6680;53.220;10.402;2022-08-07T09:19:18;19.60;99.90
13229;DHT22;6680;53.220;10.402;2022-08-07T09:21:52;19.70;99.90
13229;DHT22;6680;53.220;10.402;2022-08-07T09:24:30;19.90;99.90
13229;DHT22;6680;53.220;10.402;2022-08-07T09:27:11;20.10;99.90
13229;DHT22;6680;53.220;10.402;2022-08-07T09:29:55;20.20;99.90
13229;DHT22;6680;53.220;10.402;2022-08-07T09:32:27;20.30;99.90
13229;DHT22;6680;53.220;10.402;2022-08-07T09:35:02;20.40;99.90
13229;DHT22;6680;53.220;10.402;2022-08-07T09:37:37;20.40;99.90
13229;DHT22;6680;53.220;10.402;2022-08-07T09:40:13;20.50;99.90
13229;DHT22;6680;53.220;10.402;2022-08-07T09:42:49;20.70;99.90
13229;DHT22;6680;53.220;10.402;2022-08-07T09:45:29;20.90;99.90
13229;DHT22;6680;53.220;10.402;2022-08-07T09:48:10;21.20;99.90
13229;DHT22;6680;53.220;10.402;2022-08-07T09:50:58;21.20;99.90
13229;DHT22;6680;53.220;10.402;2022-08-07T09:53:27;21.30;99.90
13229;DHT22;6680;53.220;10.402;2022-08-07T09:59:16;21.20;99.90
13229;DHT22;6680;53.220;10.402;2022-08-07T10:01:59;21.10;99.90
13229;DHT22;6680;53.220;10.402;2022-08-07T10:05:06;21.10;99.90
13229;DHT22;6680;53.220;10.402;2022-08-07T10:07:53;21.00;99.90
13229;DHT22;6680;53.220;10.402;2022-08-07T10:10:29;21.10;99.90
13229;DHT22;6680;53.220;10.402;2022-08-07T10:13:20;21.20;99.90
13229;DHT22;6680;53.220;10.402;2022-08-07T10:16:03;21.30;99.90
13229;DHT22;6680;53.220;10.402;2022-08-07T10:19:05;21.50;99.90
13229;DHT22;6680;53.220;10.402;2022-08-07T10:21:45;21.40;99.90
13229;DHT22;6680;53.220;10.402;2022-08-07T10:27:40;21.20;99.90
13229;DHT22;6680;53.220;10.402;2022-08-07T10:30:14;21.20;99.90
13229;DHT22;6680;53.220;10.402;2022-08-07T10:32:58;21.20;99.90
13229;DHT22;6680;53.220;10.402;2022-08-07T10:35:28;21.20;99.90
13229;DHT22;6680;53.220;10.402;2022-08-07T10:38:09;21.30;99.90
13229;DHT22;6680;53.220;10.402;2022-08-07T10:40:41;21.30;99.90
13229;DHT22;6680;53.220;10.402;2022-08-07T10:43:13;21.40;99.90
13229;DHT22;6680;53.220;10.402;2022-08-07T10:45:44;21.50;99.90
13229;DHT22;6680;53.220;10.402;2022-08-07T10:48:24;21.60;99.90
13229;DHT22;6680;53.220;10.402;2022-08-07T10:50:54;21.60;99.90
13229;DHT22;6680;53.220;10.402;2022-08-07T10:53:27;21.50;99.90
13229;DHT22;6680;53.220;10.402;2022-08-07T10:56:02;21.30;99.90
13229;DHT22;6680;53.220;10.402;2022-08-07T10:58:52;21.30;99.90
13229;DHT22;6680;53.220;10.402;2022-08-07T11:01:34;21.30;99.90
13229;DHT22;6680;53.220;10.402;2022-08-07T11:04:09;21.40;99.90
13229;DHT22;6680;53.220;10.402;2022-08-07T11:06:47;21.50;99.90
13229;DHT22;6680;53.220;10.402;2022-08-07T11:09:19;21.80;99.90
13229;DHT22;6680;53.220;10.402;2022-08-07T11:11:54;22.00;99.90
13229;DHT22;6680;53.220;10.402;2022-08-07T11:14:24;22.10;99.90
13229;DHT22;6680;53.220;10.402;2022-08-07T11:16:55;22.10;99.90
13229;DHT22;6680;53.220;10.402;2022-08-07T11:19:30;22.20;99.90
13229;DHT22;6680;53.220;10.402;2022-08-07T11:22:06;22.30;99.90
13229;DHT22;6680;53.220;10.402;2022-08-07T11:24:39;22.20;99.90
13229;DHT22;6680;53.220;10.402;2022-08-07T11:27:12;22.10;99.90
13229;DHT22;6680;53.220;10.402;2022-08-07T11:29:49;21.90;99.90
13229;DHT22;6680;53.220;10.402;2022-08-07T11:32:22;21.90;99.90
13229;DHT22;6680;53.220;10.402;2022-08-07T11:34:55;21.90;99.90
13229;DHT22;6680;53.220;10.402;2022-08-07T11:37:33;21.90;99.90
13229;DHT22;6680;53.220;10.402;2022-08-07T11:40:12;21.90;99.90
13229;DHT22;6680;53.220;10.402;2022-08-07T11:42:59;22.30;99.90
13229;DHT22;6680;53.220;10.402;2022-08-07T11:45:33;22.60;99.90
13229;DHT22;6680;53.220;10.402;2022-08-07T11:48:19;22.50;99.90
13229;DHT22;6680;53.220;10.402;2022-08-07T11:51:08;22.50;99.90
13229;DHT22;6680;53.220;10.402;2022-08-07T11:53:49;22.50;99.90
13229;DHT22;6680;53.220;10.402;2022-08-07T11:56:26;22.60;99.50
13229;DHT22;6680;53.220;10.402;2022-08-07T11:59:12;22.50;99.90
13229;DHT22;6680;53.220;10.402;2022-08-07T12:01:47;22.30;99.90
13229;DHT22;6680;53.220;10.402;2022-08-07T12:04:37;22.30;99.90
13229;DHT22;6680;53.220;10.402;2022-08-07T12:07:15;22.20;99.90
13229;DHT22;6680;53.220;10.402;2022-08-07T12:09:48;22.30;99.90
13229;DHT22;6680;53.220;10.402;2022-08-07T12:12:20;22.40;99.90
13229;DHT22;6680;53.220;10.402;2022-08-07T12:14:57;22.50;99.90
13229;DHT22;6680;53.220;10.402;2022-08-07T12:17:32;22.50;99.90
13229;DHT22;6680;53.220;10.402;2022-08-07T12:20:05;22.50;99.90
13229;DHT22;6680;53.220;10.402;2022-08-07T12:22:42;22.20;99.90
13229;DHT22;6680;53.220;10.402;2022-08-07T12:25:12;22.20;99.90
13229;DHT22;6680;53.220;10.402;2022-08-07T12:28:03;22.20;99.90
13229;DHT22;6680;53.220;10.402;2022-08-07T12:30:34;22.20;99.90
13229;DHT22;6680;53.220;10.402;2022-08-07T12:33:09;22.20;99.50
13229;DHT22;6680;53.220;10.402;2022-08-07T12:35:39;22.40;99.90
13229;DHT22;6680;53.220;10.402;2022-08-07T12:38:08;22.50;99.70
13229;DHT22;6680;53.220;10.402;2022-08-07T12:40:36;22.80;99.90
13229;DHT22;6680;53.220;10.402;2022-08-07T12:43:07;23.00;99.90
13229;DHT22;6680;53.220;10.402;2022-08-07T12:45:38;23.30;99.50
13229;DHT22;6680;53.220;10.402;2022-08-07T12:48:15;23.40;99.90
13229;DHT22;6680;53.220;10.402;2022-08-07T12:50:49;23.30;99.60
13229;DHT22;6680;53.220;10.402;2022-08-07T12:53:25;23.40;99.70
13229;DHT22;6680;53.220;10.402;2022-08-07T12:55:59;23.20;99.90
13229;DHT22;6680;53.220;10.402;2022-08-07T12:58:32;23.10;99.10
13229;DHT22;6680;53.220;10.402;2022-08-07T13:01:07;23.10;99.30
13229;DHT22;6680;53.220;10.402;2022-08-07T13:03:56;23.00;99.40
13229;DHT22;6680;53.220;10.402;2022-08-07T13:06:33;23.20;98.70
13229;DHT22;6680;53.220;10.402;2022-08-07T13:09:13;23.20;98.80
13229;DHT22;6680;53.220;10.402;2022-08-07T13:11:52;23.40;99.90
13229;DHT22;6680;53.220;10.402;2022-08-07T13:14:28;23.30;99.30
13229;DHT22;6680;53.220;10.402;2022-08-07T13:17:01;23.20;99.10
13229;DHT22;6680;53.220;10.402;2022-08-07T13:19:38;23.00;99.40
13229;DHT22;6680;53.220;10.402;2022-08-07T13:22:10;22.90;99.70
13229;DHT22;6680;53.220;10.402;2022-08-07T13:24:43;22.70;99.90
13229;DHT22;6680;53.220;10.402;2022-08-07T13:27:15;22.50;99.90
13229;DHT22;6680;53.220;10.402;2022-08-07T13:29:51;22.50;99.50
13229;DHT22;6680;53.220;10.402;2022-08-07T13:32:25;22.60;99.30
13229;DHT22;6680;53.220;10.402;2022-08-07T13:34:56;22.60;99.30
13229;DHT22;6680;53.220;10.402;2022-08-07T13:37:30;22.60;99.30
13229;DHT22;6680;53.220;10.402;2022-08-07T13:40:13;22.70;99.00
13229;DHT22;6680;53.220;10.402;2022-08-07T13:42:42;22.70;98.70
13229;DHT22;6680;53.220;10.402;2022-08-07T13:45:09;22.60;98.80
13229;DHT22;6680;53.220;10.402;2022-08-07T13:47:38;22.60;98.40
13229;DHT22;6680;53.220;10.402;2022-08-07T13:50:07;22.70;98.50
13229;DHT22;6680;53.220;10.402;2022-08-07T13:52:37;22.90;98.60
13229;DHT22;6680;53.220;10.402;2022-08-07T13:55:09;23.00;98.60
13229;DHT22;6680;53.220;10.402;2022-08-07T13:57:38;23.10;98.60
13229;DHT22;6680;53.220;10.402;2022-08-07T14:00:07;23.40;98.60
13229;DHT22;6680;53.220;10.402;2022-08-07T14:02:35;23.50;97.90
13229;DHT22;6680;53.220;10.402;2022-08-07T14:05:05;23.50;98.00
13229;DHT22;6680;53.220;10.402;2022-08-07T14:07:38;23.50;97.40
13229;DHT22;6680;53.220;10.402;2022-08-07T14:10:08;23.50;97.70
13229;DHT22;6680;53.220;10.402;2022-08-07T14:12:37;23.50;98.00
13229;DHT22;6680;53.220;10.402;2022-08-07T14:15:17;23.50;98.00
13229;DHT22;6680;53.220;10.402;2022-08-07T14:17:46;23.60;97.80
13229;DHT22;6680;53.220;10.402;2022-08-07T14:20:18;23.50;97.80
13229;DHT22;6680;53.220;10.402;2022-08-07T14:22:50;23.50;97.70
13229;DHT22;6680;53.220;10.402;2022-08-07T14:25:24;23.40;97.60
13229;DHT22;6680;53.220;10.402;2022-08-07T14:27:52;23.50;97.30
13229;DHT22;6680;53.220;10.402;2022-08-07T14:30:20;23.50;97.70
13229;DHT22;6680;53.220;10.402;2022-08-07T14:32:54;23.50;97.70
13229;DHT22;6680;53.220;10.402;2022-08-07T14:35:23;23.50;97.60
13229;DHT22;6680;53.220;10.402;2022-08-07T14:37:51;23.50;97.60
13229;DHT22;6680;53.220;10.402;2022-08-07T14:40:21;23.50;98.40
13229;DHT22;6680;53.220;10.402;2022-08-07T14:42:53;23.50;97.20
13229;DHT22;6680;53.220;10.402;2022-08-07T14:45:21;23.20;96.90
13229;DHT22;6680;53.220;10.402;2022-08-07T14:47:50;23.00;97.80
13229;DHT22;6680;53.220;10.402;2022-08-07T14:50:18;23.00;97.20
13229;DHT22;6680;53.220;10.402;2022-08-07T14:52:48;23.00;97.30
13229;DHT22;6680;53.220;10.402;2022-08-07T14:55:15;23.10;97.40
13229;DHT22;6680;53.220;10.402;2022-08-07T14:57:47;23.20;97.60
13229;DHT22;6680;53.220;10.402;2022-08-07T15:00:16;23.10;97.50
13229;DHT22;6680;53.220;10.402;2022-08-07T15:02:44;23.10;97.70
13229;DHT22;6680;53.220;10.402;2022-08-07T15:05:14;23.20;98.10
13229;DHT22;6680;53.220;10.402;2022-08-07T15:07:42;23.20;98.50
13229;DHT22;6680;53.220;10.402;2022-08-07T15:10:16;23.10;98.10
13229;DHT22;6680;53.220;10.402;2022-08-07T15:12:44;23.20;98.60
13229;DHT22;6680;53.220;10.402;2022-08-07T15:15:15;23.20;98.20
13229;DHT22;6680;53.220;10.402;2022-08-07T15:17:53;23.10;97.90
13229;DHT22;6680;53.220;10.402;2022-08-07T15:20:25;22.90;98.40
13229;DHT22;6680;53.220;10.402;2022-08-07T15:22:54;22.90;98.60
13229;DHT22;6680;53.220;10.402;2022-08-07T15:25:23;22.90;98.90
13229;DHT22;6680;53.220;10.402;2022-08-07T15:27:56;23.00;98.80
13229;DHT22;6680;53.220;10.402;2022-08-07T15:30:24;23.00;98.90
13229;DHT22;6680;53.220;10.402;2022-08-07T15:32:53;22.90;98.40
13229;DHT22;6680;53.220;10.402;2022-08-07T15:35:22;22.90;98.60
13229;DHT22;6680;53.220;10.402;2022-08-07T15:37:51;22.90;98.80
13229;DHT22;6680;53.220;10.402;2022-08-07T15:40:20;22.80;99.30
13229;DHT22;6680;53.220;10.402;2022-08-07T15:42:53;22.80;99.00
13229;DHT22;6680;53.220;10.402;2022-08-07T15:45:29;22.70;99.00
13229;DHT22;6680;53.220;10.402;2022-08-07T15:48:01;22.70;99.00
13229;DHT22;6680;53.220;10.402;2022-08-07T15:50:31;22.70;99.40
13229;DHT22;6680;53.220;10.402;2022-08-07T15:53:01;22.70;99.60
13229;DHT22;6680;53.220;10.402;2022-08-07T15:55:30;22.70;98.70
13229;DHT22;6680;53.220;10.402;2022-08-07T15:58:00;22.70;98.80
13229;DHT22;6680;53.220;10.402;2022-08-07T16:00:30;22.60;99.00
13229;DHT22;6680;53.220;10.402;2022-08-07T16:02:57;22.50;99.10
13229;DHT22;6680;53.220;10.402;2022-08-07T16:05:27;22.50;99.60
13229;DHT22;6680;53.220;10.402;2022-08-07T16:08:01;22.50;99.50
13229;DHT22;6680;53.220;10.402;2022-08-07T16:10:28;22.50;99.50
13229;DHT22;6680;53.220;10.402;2022-08-07T16:13:03;22.50;99.60